• Join FlightAware (Why Join?)
  • Login
  • US Flag 
12:04AM EDT


 

Airport Tracker/Info


-or-


 

Live Flight TrackerFlight Track Log ✈ VOZ909 ✈ 19-Apr-2013 ✈ YSSY / SYD - YBBN / BNE

Flight Track Log - Related Links

Times and Time Zones

All times are in EDT time to prevent confusion due to time zone crossing. See the VOZ909 flight status page for this flight to view local times or setup timezone preferences in your user account.

Time Position Orientation Groundspeed Altitude Reporting Facility
EDT Latitude Longitude Course Direction KTS MPH feet Rate Location/Type
05:32PM -33.9907 151.2197 125° Southeast 186 214 2,300  Level Aus ATC (RADAR)
05:32PM -34.0000 151.2360 127° Southeast 218 251 3,000 2,640 Climbing FlightAware
05:32PM -34.0190 151.2560 139° Southeast 242 278 4,200 2,220 Climbing FlightAware
05:33PM -34.0290 151.2720 127° Southeast 261 300 4,500 960 Climbing FlightAware
05:33PM -34.0330 151.2870 108° East 269 310 4,600 600 Climbing FlightAware
05:33PM -34.0240 151.3330 77° East 289 333 4,900 360 Climbing FlightAware
05:34PM -34.0000 151.3700 52° Northeast 289 333 5,000 120 Climbing FlightAware
05:34PM -33.9795 151.3992 52° Northeast 290 334 5,000  Level Aus ATC (RADAR)
05:34PM -33.9840 151.3930 52° Northeast 288 331 5,000 660 Level FlightAware
05:35PM -33.9480 151.4240 36° Northeast 295 339 5,400 1,200 Climbing FlightAware
05:35PM -33.9108 151.4385 36° Northeast 314 361 6,100 1,800 Climbing Aus ATC (RADAR)
05:35PM -33.9080 151.4400 36° Northeast 335 386 6,300 4,140 Climbing FlightAware
05:36PM -33.8650 151.4560 17° North 331 381 8,600 4,980 Climbing FlightAware
05:36PM -33.8294 151.4700 17° North 333 383 9,900 3,300 Climbing Aus ATC (RADAR)
05:36PM -33.8040 151.4800 17° North 353 406 10,800 3,720 Climbing FlightAware
05:37PM -33.7593 151.4961 17° North 347 399 12,700 3,840 Climbing Aus ATC (RADAR)
05:37PM -33.7320 151.5060 17° North 359 413 13,700 2,460 Climbing FlightAware
05:38PM -33.6640 151.5320 18° North 387 445 15,500 1,860 Climbing FlightAware
05:38PM -33.5979 151.5572 18° North 418 481 16,000 1,020 Climbing Aus ATC (RADAR)
05:38PM -33.5870 151.5610 18° North 441 507 16,200 2,640 Climbing FlightAware
05:39PM -33.4986 151.5952 18° North 448 516 18,200 2,700 Climbing Aus ATC (RADAR)
05:39PM -33.5060 151.5920 18° North 455 524 18,000 2,400 Descending FlightAware
05:40PM -33.4210 151.6250 18° North 464 534 19,900 2,520 Climbing FlightAware
05:41PM -33.3370 151.6570 18° North 473 544 21,600 2,400 Climbing FlightAware
05:41PM -33.2886 151.6752 18° North 475 547 22,400 2,100 Climbing Aus ATC (RADAR)
05:41PM -33.2370 151.6950 18° North 486 559 23,200 1,920 Climbing FlightAware
05:42PM -33.1744 151.7182 18° North 486 559 24,100 1,920 Climbing Aus ATC (RADAR)
05:42PM -33.1490 151.7280 18° North 498 573 24,500 1,620 Climbing FlightAware
05:42PM -33.1039 151.7445 18° North 498 573 25,000 1,500 Climbing Aus ATC (RADAR)
05:43PM -33.0580 151.7620 18° North 508 585 25,500 1,680 Climbing FlightAware
05:43PM -32.9686 151.7953 18° North 511 588 26,700 1,800 Climbing Aus ATC (RADAR)
05:43PM -32.9690 151.7950 18° North 514 592 26,700 3,600 Level FlightAware
05:44PM -32.8838 151.8277 18° North 497 572 29,000 3,300 Climbing Aus ATC (RADAR)
05:44PM -32.8380 151.8450 18° North 480 552 30,000 2,280 Climbing FlightAware
05:45PM -32.7679 151.8714 18° North 475 547 31,100 1,800 Climbing Aus ATC (RADAR)
05:45PM -32.7530 151.8760 18° North 481 554 31,200 1,200 Climbing FlightAware
05:45PM -32.6928 151.8987 18° North 481 554 31,800 1,020 Climbing Aus ATC (RADAR)
05:46PM -32.6590 151.9110 18° North 494 568 32,000 1,140 Climbing FlightAware
05:46PM -32.5720 151.9440 18° North 497 572 33,000 1,920 Climbing FlightAware
05:47PM -32.5252 151.9618 18° North 496 571 33,800 2,580 Climbing Aus ATC (RADAR)
05:47PM -32.4929 151.9738 17° North 492 566 34,300 1,440 Climbing Aus ATC (RADAR)
05:47PM -32.4860 151.9760 17° North 486 559 34,400 2,220 Climbing FlightAware
05:47PM -32.4186 152.0012 17° North 481 554 35,600 2,220 Climbing Aus ATC (RADAR)
05:48PM -32.3860 152.0130 17° North 472 543 36,100 1,800 Climbing FlightAware
05:48PM -32.2946 152.0475 17° North 467 537 37,400 1,800 Climbing Aus ATC (RADAR)
05:48PM -32.3010 152.0450 17° North 464 534 37,300 900 Descending FlightAware
05:49PM -32.2266 152.0724 17° North 460 529 37,900 720 Climbing Aus ATC (RADAR)
05:49PM -32.2250 152.0730 17° North 467 537 37,800 420 Descending FlightAware
05:50PM -32.1280 152.1080 17° North 474 545 38,300 660 Climbing FlightAware
05:51PM -32.0410 152.1400 17° North 477 549 38,800 480 Climbing FlightAware
05:51PM -31.9648 152.1687 17° North 474 545 38,900 240 Climbing Aus ATC (RADAR)
05:51PM -31.9470 152.1750 17° North 467 537 39,000 360 Climbing FlightAware
05:52PM -31.8998 152.1922 17° North 464 534 39,100 -180 Climbing Aus ATC (RADAR)
05:52PM -31.8617 152.2064 18° North 467 537 38,900 -300 Descending Aus ATC (RADAR)
05:52PM -31.8660 152.2040 18° North 468 539 39,000  Climbing FlightAware
05:53PM -31.7897 152.2326 18° North 464 534 38,900  Descending Aus ATC (RADAR)
05:53PM -31.7700 152.2390 18° North 466 536 39,000 60 Climbing FlightAware
05:53PM -31.6900 152.2680 17° North 464 534 39,000  Level FlightAware
05:54PM -31.6140 152.2960 17° North 464 534 39,000  Level FlightAware
05:55PM -31.5240 152.3290 17° North 463 533 39,000  Level FlightAware
05:55PM -31.4820 152.3443 17° North 462 532 39,000  Level Aus ATC (RADAR)
05:55PM -31.4430 152.3580 17° North 462 532 39,000  Level FlightAware
05:56PM -31.3610 152.3880 17° North 462 532 39,000  Level FlightAware
05:57PM -31.2781 152.4188 17° North 459 528 39,000  Level Aus ATC (RADAR)
05:57PM -31.2610 152.4240 17° North 462 532 39,000  Level FlightAware
05:58PM -31.1757 152.4562 17° North 463 533 39,000  Level Aus ATC (RADAR)
05:58PM -31.1730 152.4560 17° North 464 534 39,000  Level FlightAware
05:58PM -31.0860 152.4870 17° North 461 531 39,000  Level FlightAware
05:59PM -30.9820 152.5254 17° North 458 527 39,000  Level Aus ATC (RADAR)
05:59PM -30.9920 152.5210 17° North 459 528 39,000  Level FlightAware
06:00PM -30.9061 152.5517 17° North 459 528 39,000  Level Aus ATC (RADAR)
06:00PM -30.8680 152.5650 17° North 455 524 39,000 -180 Level FlightAware
06:01PM -30.8551 152.5703 17° North 458 527 38,900  Descending Aus ATC (RADAR)
06:01PM -30.7990 152.5890 17° North 455 524 39,000 60 Climbing FlightAware
06:02PM -30.6630 152.6390 18° North 463 533 39,000 -120 Level FlightAware
06:02PM -30.6596 152.6396 18° North 459 528 38,900  Descending Aus ATC (RADAR)
06:03PM -30.5729 152.6716 18° North 458 527 39,000 60 Climbing Aus ATC (RADAR)
06:04PM -30.4202 152.7266 17° North 460 529 39,000  Level Aus ATC (RADAR)
06:04PM -30.3434 152.7522 16° North 460 529 39,000  Level Aus ATC (RADAR)
06:06PM -30.1522 152.8210 17° North 467 537 39,000  Level Aus ATC (RADAR)
06:09PM -29.9101 152.9058 17° North 462 532 39,000  Level Aus ATC (RADAR)
06:11PM -29.6326 153.0026 17° North 469 540 39,000  Level Aus ATC (RADAR)
06:13PM -29.4562 153.0632 17° North 468 539 39,000 -60 Level Aus ATC (RADAR)
06:14PM -29.1760 153.1600 17° North 457 526 38,900 -960 Descending FlightAware
06:15PM -29.0740 153.1950 17° North 456 525 37,300 -2,640 Descending FlightAware
06:15PM -28.9790 153.2270 16° North 455 524 35,000 -3,000 Descending FlightAware
06:16PM -28.8910 153.2570 17° North 467 537 32,800 -3,300 Descending FlightAware
06:16PM -28.8489 153.2725 17° North 469 540 31,700 -2,700 Descending Aus ATC (RADAR)
06:17PM -28.8090 153.2860 17° North 457 526 31,000 -2,340 Descending FlightAware
06:17PM -28.7310 153.3130 17° North 457 526 29,400 -2,700 Descending FlightAware
06:18PM -28.6801 153.3259 17° North 444 511 28,300 -2,520 Descending Aus ATC (RADAR)
06:18PM -28.6330 153.3470 17° North 440 506 27,300 -2,220 Descending FlightAware
06:19PM -28.5610 153.3710 16° North 440 506 25,900 -2,340 Descending FlightAware
06:19PM -28.4790 153.3990 17° North 431 496 24,200 -2,100 Descending FlightAware
06:20PM -28.4572 153.4054 17° North 422 486 23,700 -2,280 Descending Aus ATC (RADAR)
06:20PM -28.3950 153.4270 17° North 421 484 22,500 -2,520 Descending FlightAware
06:21PM -28.3280 153.4500 17° North 415 478 21,100 -2,400 Descending FlightAware
06:22PM -28.2393 153.4809 17° North 412 474 19,300 -2,280 Descending Aus ATC (RADAR)
06:22PM -28.2410 153.4790 17° North 404 465 19,400 -1,920 Climbing FlightAware
06:22PM -28.1690 153.5000 14° North 390 449 17,900 -2,160 Descending FlightAware
06:23PM -28.1200 153.4950 355° North 373 429 16,900 -2,280 Descending FlightAware
06:23PM -28.0480 153.4830 352° North 362 417 15,300 -2,280 Descending FlightAware
06:24PM -27.9730 153.4690 351° North 346 398 13,700 -2,280 Descending FlightAware
06:25PM -27.9265 153.4615 351° North 351 404 12,700 -2,100 Descending Aus ATC (RADAR)
06:25PM -27.9190 153.4600 351° North 342 394 12,500 -1,800 Descending FlightAware
06:26PM -27.8430 153.4450 350° North 331 381 11,100 -1,620 Descending FlightAware
06:26PM -27.7810 153.4210 341° North 310 357 10,100 -1,140 Descending FlightAware
06:27PM -27.7420 153.4050 340° North 286 329 9,700 -1,080 Descending FlightAware
06:27PM -27.7300 153.4000 340° North 288 331 9,400 -1,800 Descending FlightAware
06:27PM -27.6930 153.3850 340° North 290 334 8,500 -1,800 Descending FlightAware
06:28PM -27.6590 153.3710 340° North 287 330 7,800 -1,680 Descending FlightAware
06:28PM -27.6220 153.3560 340° North 284 327 7,000 -1,500 Descending FlightAware
06:29PM -27.5840 153.3400 340° North 279 321 6,300 -1,500 Descending FlightAware
06:29PM -27.5597 153.3302 340° North 280 322 5,800 -1,440 Descending Aus ATC (RADAR)
06:29PM -27.5570 153.3290 340° North 277 319 5,700 -1,380 Descending FlightAware
06:30PM -27.5200 153.3140 340° North 273 314 5,000 -1,200 Descending FlightAware
06:30PM -27.5010 153.3060 340° North 266 306 4,800 -600 Descending FlightAware
06:30PM -27.4740 153.2960 342° North 252 290 4,600 -600 Descending FlightAware
06:31PM -27.4505 153.2863 342° North 248 285 4,400 -420 Descending Aus ATC (RADAR)
06:31PM -27.4420 153.2830 342° North 228 262 4,400 -480 Level FlightAware
06:31PM -27.4140 153.2720 341° North 207 238 4,100 -600 Descending FlightAware
06:32PM -27.4050 153.2680 338° Northwest 200 230 4,000 -900 Descending FlightAware
06:32PM -27.3800 153.2580 340° North 195 224 3,500 -1,140 Descending FlightAware
06:33PM -27.3540 153.2470 339° North 188 216 2,900 -1,080 Descending FlightAware
06:33PM -27.3420 153.2420 340° North 185 213 2,700 -900 Descending FlightAware
06:35PM -27.3340 153.1578 340° North 145 167 900 -960 Descending Aus ATC (RADAR)